sensor_id;sensor_type;location;lat;lon;timestamp;P1;durP1;ratioP1;P2;durP2;ratioP2
22894;SDS011;11614;52.494;6.976;2023-07-28T00:02:05;16.80;;;9.30;;
22894;SDS011;11614;52.494;6.976;2023-07-28T00:04:34;20.63;;;10.70;;
22894;SDS011;11614;52.494;6.976;2023-07-28T00:07:00;16.25;;;9.93;;
22894;SDS011;11614;52.494;6.976;2023-07-28T00:09:26;15.25;;;10.55;;
22894;SDS011;11614;52.494;6.976;2023-07-28T00:11:52;20.30;;;10.63;;
22894;SDS011;11614;52.494;6.976;2023-07-28T00:14:18;20.80;;;11.20;;
22894;SDS011;11614;52.494;6.976;2023-07-28T00:16:44;18.35;;;11.52;;
22894;SDS011;11614;52.494;6.976;2023-07-28T00:19:09;11.55;;;5.97;;
22894;SDS011;11614;52.494;6.976;2023-07-28T00:21:35;19.08;;;11.82;;
22894;SDS011;11614;52.494;6.976;2023-07-28T00:24:01;18.92;;;10.80;;
22894;SDS011;11614;52.494;6.976;2023-07-28T00:26:27;20.10;;;12.40;;
22894;SDS011;11614;52.494;6.976;2023-07-28T00:28:53;16.42;;;8.63;;
22894;SDS011;11614;52.494;6.976;2023-07-28T00:31:19;14.48;;;9.15;;
22894;SDS011;11614;52.494;6.976;2023-07-28T00:33:45;18.70;;;12.55;;
22894;SDS011;11614;52.494;6.976;2023-07-28T00:36:11;17.67;;;12.35;;
22894;SDS011;11614;52.494;6.976;2023-07-28T00:38:37;15.18;;;9.65;;
22894;SDS011;11614;52.494;6.976;2023-07-28T00:41:03;19.35;;;11.70;;
22894;SDS011;11614;52.494;6.976;2023-07-28T00:43:29;19.88;;;11.32;;
22894;SDS011;11614;52.494;6.976;2023-07-28T00:45:55;21.42;;;11.98;;
22894;SDS011;11614;52.494;6.976;2023-07-28T00:48:21;16.67;;;9.63;;
22894;SDS011;11614;52.494;6.976;2023-07-28T00:50:48;17.30;;;8.75;;
22894;SDS011;11614;52.494;6.976;2023-07-28T00:53:14;19.50;;;11.00;;
22894;SDS011;11614;52.494;6.976;2023-07-28T00:55:41;13.80;;;8.98;;
22894;SDS011;11614;52.494;6.976;2023-07-28T00:58:10;15.57;;;8.75;;
22894;SDS011;11614;52.494;6.976;2023-07-28T01:00:35;17.15;;;9.80;;
22894;SDS011;11614;52.494;6.976;2023-07-28T01:03:01;14.93;;;8.57;;
22894;SDS011;11614;52.494;6.976;2023-07-28T01:08:15;19.55;;;11.77;;
22894;SDS011;11614;52.494;6.976;2023-07-28T01:10:42;18.02;;;11.68;;
22894;SDS011;11614;52.494;6.976;2023-07-28T01:13:08;20.88;;;12.07;;
22894;SDS011;11614;52.494;6.976;2023-07-28T01:15:33;20.30;;;11.57;;
22894;SDS011;11614;52.494;6.976;2023-07-28T01:17:59;19.00;;;11.43;;
22894;SDS011;11614;52.494;6.976;2023-07-28T01:20:25;19.52;;;12.30;;
22894;SDS011;11614;52.494;6.976;2023-07-28T01:28:13;17.75;;;9.50;;
22894;SDS011;11614;52.494;6.976;2023-07-28T01:30:41;19.33;;;12.23;;
22894;SDS011;11614;52.494;6.976;2023-07-28T01:33:08;18.98;;;12.30;;
22894;SDS011;11614;52.494;6.976;2023-07-28T01:35:35;19.60;;;10.77;;
22894;SDS011;11614;52.494;6.976;2023-07-28T01:38:03;17.83;;;12.75;;
22894;SDS011;11614;52.494;6.976;2023-07-28T01:40:29;19.52;;;13.50;;
22894;SDS011;11614;52.494;6.976;2023-07-28T01:42:55;22.60;;;13.15;;
22894;SDS011;11614;52.494;6.976;2023-07-28T01:45:21;19.75;;;11.52;;
22894;SDS011;11614;52.494;6.976;2023-07-28T01:47:47;21.80;;;12.57;;
22894;SDS011;11614;52.494;6.976;2023-07-28T01:50:13;19.40;;;11.70;;
22894;SDS011;11614;52.494;6.976;2023-07-28T01:52:38;19.63;;;11.48;;
22894;SDS011;11614;52.494;6.976;2023-07-28T01:55:05;19.05;;;10.50;;
22894;SDS011;11614;52.494;6.976;2023-07-28T01:57:34;19.40;;;11.57;;
22894;SDS011;11614;52.494;6.976;2023-07-28T02:00:00;20.27;;;10.85;;
22894;SDS011;11614;52.494;6.976;2023-07-28T02:02:28;23.92;;;12.55;;
22894;SDS011;11614;52.494;6.976;2023-07-28T02:04:54;16.35;;;8.98;;
22894;SDS011;11614;52.494;6.976;2023-07-28T02:07:20;24.73;;;12.95;;
22894;SDS011;11614;52.494;6.976;2023-07-28T02:09:45;16.00;;;10.02;;
22894;SDS011;11614;52.494;6.976;2023-07-28T02:12:11;21.60;;;13.73;;
22894;SDS011;11614;52.494;6.976;2023-07-28T02:14:37;22.25;;;12.40;;
22894;SDS011;11614;52.494;6.976;2023-07-28T02:17:03;20.20;;;10.93;;
22894;SDS011;11614;52.494;6.976;2023-07-28T02:19:29;16.35;;;8.85;;
22894;SDS011;11614;52.494;6.976;2023-07-28T02:21:55;13.43;;;7.22;;
22894;SDS011;11614;52.494;6.976;2023-07-28T02:24:21;21.20;;;13.50;;
22894;SDS011;11614;52.494;6.976;2023-07-28T02:26:47;16.33;;;9.57;;
22894;SDS011;11614;52.494;6.976;2023-07-28T02:29:13;22.25;;;13.98;;
22894;SDS011;11614;52.494;6.976;2023-07-28T02:31:39;17.27;;;11.60;;
22894;SDS011;11614;52.494;6.976;2023-07-28T02:34:05;14.52;;;8.27;;
22894;SDS011;11614;52.494;6.976;2023-07-28T02:36:31;16.58;;;9.43;;
22894;SDS011;11614;52.494;6.976;2023-07-28T02:38:57;20.90;;;13.13;;
22894;SDS011;11614;52.494;6.976;2023-07-28T02:41:22;17.75;;;9.98;;
22894;SDS011;11614;52.494;6.976;2023-07-28T02:43:48;23.27;;;12.73;;
22894;SDS011;11614;52.494;6.976;2023-07-28T02:46:14;19.70;;;10.85;;
22894;SDS011;11614;52.494;6.976;2023-07-28T02:48:40;16.25;;;7.55;;
22894;SDS011;11614;52.494;6.976;2023-07-28T02:51:06;20.40;;;10.88;;
22894;SDS011;11614;52.494;6.976;2023-07-28T02:53:32;19.92;;;11.68;;
22894;SDS011;11614;52.494;6.976;2023-07-28T02:55:58;26.42;;;14.07;;
22894;SDS011;11614;52.494;6.976;2023-07-28T02:58:24;22.50;;;14.52;;
22894;SDS011;11614;52.494;6.976;2023-07-28T03:00:51;23.52;;;11.75;;
22894;SDS011;11614;52.494;6.976;2023-07-28T03:03:17;26.23;;;13.30;;
22894;SDS011;11614;52.494;6.976;2023-07-28T03:05:43;13.23;;;7.50;;
22894;SDS011;11614;52.494;6.976;2023-07-28T03:08:09;22.80;;;14.18;;
22894;SDS011;11614;52.494;6.976;2023-07-28T03:10:34;22.85;;;13.77;;
22894;SDS011;11614;52.494;6.976;2023-07-28T03:13:01;20.50;;;12.82;;
22894;SDS011;11614;52.494;6.976;2023-07-28T03:15:26;24.02;;;12.52;;
22894;SDS011;11614;52.494;6.976;2023-07-28T03:17:52;21.85;;;12.60;;
22894;SDS011;11614;52.494;6.976;2023-07-28T03:20:19;18.73;;;11.40;;
22894;SDS011;11614;52.494;6.976;2023-07-28T03:22:46;22.38;;;14.50;;
22894;SDS011;11614;52.494;6.976;2023-07-28T03:25:12;19.85;;;13.60;;
22894;SDS011;11614;52.494;6.976;2023-07-28T03:27:38;20.58;;;12.30;;
22894;SDS011;11614;52.494;6.976;2023-07-28T03:30:03;21.17;;;11.65;;
22894;SDS011;11614;52.494;6.976;2023-07-28T03:32:31;20.60;;;10.60;;
22894;SDS011;11614;52.494;6.976;2023-07-28T03:34:57;20.63;;;12.23;;
22894;SDS011;11614;52.494;6.976;2023-07-28T03:37:23;18.10;;;11.90;;
22894;SDS011;11614;52.494;6.976;2023-07-28T03:39:49;19.85;;;12.27;;
22894;SDS011;11614;52.494;6.976;2023-07-28T03:42:15;23.70;;;13.88;;
22894;SDS011;11614;52.494;6.976;2023-07-28T03:44:41;22.00;;;12.82;;
22894;SDS011;11614;52.494;6.976;2023-07-28T03:47:07;18.77;;;11.88;;
22894;SDS011;11614;52.494;6.976;2023-07-28T03:49:33;20.67;;;12.65;;
22894;SDS011;11614;52.494;6.976;2023-07-28T03:51:59;21.85;;;14.52;;
22894;SDS011;11614;52.494;6.976;2023-07-28T03:54:25;23.20;;;13.95;;
22894;SDS011;11614;52.494;6.976;2023-07-28T03:56:51;24.10;;;14.90;;
22894;SDS011;11614;52.494;6.976;2023-07-28T03:59:17;26.15;;;15.02;;
22894;SDS011;11614;52.494;6.976;2023-07-28T04:01:43;21.88;;;13.10;;
22894;SDS011;11614;52.494;6.976;2023-07-28T04:04:09;23.48;;;14.82;;
22894;SDS011;11614;52.494;6.976;2023-07-28T04:06:41;21.10;;;13.82;;
22894;SDS011;11614;52.494;6.976;2023-07-28T04:09:08;19.55;;;13.07;;
22894;SDS011;11614;52.494;6.976;2023-07-28T04:11:33;22.42;;;13.88;;
22894;SDS011;11614;52.494;6.976;2023-07-28T04:13:59;23.42;;;15.07;;
22894;SDS011;11614;52.494;6.976;2023-07-28T04:16:25;23.65;;;13.40;;
22894;SDS011;11614;52.494;6.976;2023-07-28T04:18:51;19.17;;;10.57;;
22894;SDS011;11614;52.494;6.976;2023-07-28T04:21:17;22.92;;;12.40;;
22894;SDS011;11614;52.494;6.976;2023-07-28T04:23:43;18.42;;;9.30;;
22894;SDS011;11614;52.494;6.976;2023-07-28T04:26:09;20.45;;;12.15;;
22894;SDS011;11614;52.494;6.976;2023-07-28T04:28:35;22.35;;;14.25;;
22894;SDS011;11614;52.494;6.976;2023-07-28T04:31:01;21.30;;;12.68;;
22894;SDS011;11614;52.494;6.976;2023-07-28T04:33:27;23.25;;;13.95;;
22894;SDS011;11614;52.494;6.976;2023-07-28T04:35:53;19.80;;;10.98;;
22894;SDS011;11614;52.494;6.976;2023-07-28T04:38:19;22.88;;;14.60;;
22894;SDS011;11614;52.494;6.976;2023-07-28T04:40:45;23.95;;;13.88;;
22894;SDS011;11614;52.494;6.976;2023-07-28T04:43:11;25.23;;;14.65;;
22894;SDS011;11614;52.494;6.976;2023-07-28T04:45:37;20.45;;;13.20;;
22894;SDS011;11614;52.494;6.976;2023-07-28T04:48:03;21.13;;;13.75;;
22894;SDS011;11614;52.494;6.976;2023-07-28T04:50:29;22.55;;;13.82;;
22894;SDS011;11614;52.494;6.976;2023-07-28T04:52:56;24.50;;;14.88;;
22894;SDS011;11614;52.494;6.976;2023-07-28T04:55:22;23.58;;;14.73;;
22894;SDS011;11614;52.494;6.976;2023-07-28T04:57:48;22.17;;;14.45;;
22894;SDS011;11614;52.494;6.976;2023-07-28T05:00:13;19.95;;;12.70;;
22894;SDS011;11614;52.494;6.976;2023-07-28T05:02:40;17.45;;;10.70;;
22894;SDS011;11614;52.494;6.976;2023-07-28T05:05:05;22.05;;;12.30;;
22894;SDS011;11614;52.494;6.976;2023-07-28T05:07:31;22.52;;;13.48;;
22894;SDS011;11614;52.494;6.976;2023-07-28T05:09:57;20.48;;;11.18;;
22894;SDS011;11614;52.494;6.976;2023-07-28T05:12:23;22.77;;;14.05;;
22894;SDS011;11614;52.494;6.976;2023-07-28T05:14:49;24.35;;;13.70;;
22894;SDS011;11614;52.494;6.976;2023-07-28T05:17:15;25.83;;;14.88;;
22894;SDS011;11614;52.494;6.976;2023-07-28T05:19:41;24.77;;;13.20;;
22894;SDS011;11614;52.494;6.976;2023-07-28T05:22:06;19.92;;;11.23;;
22894;SDS011;11614;52.494;6.976;2023-07-28T05:24:33;18.67;;;11.55;;
22894;SDS011;11614;52.494;6.976;2023-07-28T05:26:59;26.08;;;13.85;;
22894;SDS011;11614;52.494;6.976;2023-07-28T05:29:25;20.48;;;12.10;;
22894;SDS011;11614;52.494;6.976;2023-07-28T05:31:50;20.75;;;12.90;;
22894;SDS011;11614;52.494;6.976;2023-07-28T05:34:16;20.25;;;13.25;;
22894;SDS011;11614;52.494;6.976;2023-07-28T05:36:42;16.23;;;9.10;;
22894;SDS011;11614;52.494;6.976;2023-07-28T05:39:09;16.92;;;10.48;;
22894;SDS011;11614;52.494;6.976;2023-07-28T05:41:35;22.90;;;13.27;;
22894;SDS011;11614;52.494;6.976;2023-07-28T05:44:02;19.63;;;10.85;;
22894;SDS011;11614;52.494;6.976;2023-07-28T05:46:28;23.48;;;11.80;;
22894;SDS011;11614;52.494;6.976;2023-07-28T05:48:54;19.60;;;9.30;;
22894;SDS011;11614;52.494;6.976;2023-07-28T05:51:21;23.02;;;13.65;;
22894;SDS011;11614;52.494;6.976;2023-07-28T05:53:47;20.10;;;13.45;;
22894;SDS011;11614;52.494;6.976;2023-07-28T05:56:13;18.35;;;11.05;;
22894;SDS011;11614;52.494;6.976;2023-07-28T05:58:39;17.52;;;10.93;;
22894;SDS011;11614;52.494;6.976;2023-07-28T06:01:05;20.58;;;12.60;;
22894;SDS011;11614;52.494;6.976;2023-07-28T06:03:31;16.02;;;8.65;;
22894;SDS011;11614;52.494;6.976;2023-07-28T06:05:57;19.88;;;12.18;;
22894;SDS011;11614;52.494;6.976;2023-07-28T06:08:22;17.58;;;10.57;;
22894;SDS011;11614;52.494;6.976;2023-07-28T06:10:48;15.95;;;11.02;;
22894;SDS011;11614;52.494;6.976;2023-07-28T06:13:14;18.48;;;11.25;;
22894;SDS011;11614;52.494;6.976;2023-07-28T06:15:41;17.13;;;11.32;;
22894;SDS011;11614;52.494;6.976;2023-07-28T06:18:07;18.38;;;11.10;;
22894;SDS011;11614;52.494;6.976;2023-07-28T06:20:34;16.08;;;10.30;;
22894;SDS011;11614;52.494;6.976;2023-07-28T06:23:00;19.45;;;11.25;;
22894;SDS011;11614;52.494;6.976;2023-07-28T06:25:26;17.10;;;10.18;;
22894;SDS011;11614;52.494;6.976;2023-07-28T06:27:52;15.13;;;11.23;;
22894;SDS011;11614;52.494;6.976;2023-07-28T06:30:18;13.50;;;9.48;;
22894;SDS011;11614;52.494;6.976;2023-07-28T06:32:44;18.27;;;10.48;;
22894;SDS011;11614;52.494;6.976;2023-07-28T06:35:10;16.75;;;10.13;;
22894;SDS011;11614;52.494;6.976;2023-07-28T06:37:36;17.30;;;9.90;;
22894;SDS011;11614;52.494;6.976;2023-07-28T06:40:06;16.15;;;10.27;;
22894;SDS011;11614;52.494;6.976;2023-07-28T06:42:34;13.07;;;8.15;;
22894;SDS011;11614;52.494;6.976;2023-07-28T06:45:00;17.52;;;9.48;;
22894;SDS011;11614;52.494;6.976;2023-07-28T06:47:26;16.73;;;11.35;;
22894;SDS011;11614;52.494;6.976;2023-07-28T06:49:52;18.52;;;11.27;;
22894;SDS011;11614;52.494;6.976;2023-07-28T06:52:18;18.83;;;11.70;;
22894;SDS011;11614;52.494;6.976;2023-07-28T06:54:44;19.83;;;11.18;;
22894;SDS011;11614;52.494;6.976;2023-07-28T06:57:12;20.27;;;11.95;;
22894;SDS011;11614;52.494;6.976;2023-07-28T06:59:38;17.70;;;10.20;;
22894;SDS011;11614;52.494;6.976;2023-07-28T07:02:04;15.90;;;11.13;;
22894;SDS011;11614;52.494;6.976;2023-07-28T07:04:30;16.70;;;10.90;;
22894;SDS011;11614;52.494;6.976;2023-07-28T07:06:56;16.83;;;11.23;;
22894;SDS011;11614;52.494;6.976;2023-07-28T07:09:22;15.38;;;9.43;;
22894;SDS011;11614;52.494;6.976;2023-07-28T07:11:48;13.13;;;7.30;;
22894;SDS011;11614;52.494;6.976;2023-07-28T07:14:15;14.27;;;10.02;;
22894;SDS011;11614;52.494;6.976;2023-07-28T07:16:41;17.02;;;9.80;;
22894;SDS011;11614;52.494;6.976;2023-07-28T07:19:07;16.02;;;10.63;;
22894;SDS011;11614;52.494;6.976;2023-07-28T07:21:33;12.90;;;10.07;;
22894;SDS011;11614;52.494;6.976;2023-07-28T07:24:00;13.88;;;9.82;;
22894;SDS011;11614;52.494;6.976;2023-07-28T07:26:26;13.43;;;9.40;;
22894;SDS011;11614;52.494;6.976;2023-07-28T07:28:52;15.68;;;9.30;;
22894;SDS011;11614;52.494;6.976;2023-07-28T07:31:18;12.02;;;7.13;;
22894;SDS011;11614;52.494;6.976;2023-07-28T07:33:44;15.02;;;9.93;;
22894;SDS011;11614;52.494;6.976;2023-07-28T07:36:14;14.35;;;9.40;;
22894;SDS011;11614;52.494;6.976;2023-07-28T07:38:40;12.95;;;8.27;;
22894;SDS011;11614;52.494;6.976;2023-07-28T07:41:06;12.95;;;7.53;;
22894;SDS011;11614;52.494;6.976;2023-07-28T07:43:33;13.77;;;7.57;;
22894;SDS011;11614;52.494;6.976;2023-07-28T07:45:59;13.05;;;9.38;;
22894;SDS011;11614;52.494;6.976;2023-07-28T07:48:25;15.05;;;9.35;;
22894;SDS011;11614;52.494;6.976;2023-07-28T07:50:51;11.85;;;7.55;;
22894;SDS011;11614;52.494;6.976;2023-07-28T07:53:17;13.82;;;9.18;;
22894;SDS011;11614;52.494;6.976;2023-07-28T07:55:43;15.30;;;9.13;;
22894;SDS011;11614;52.494;6.976;2023-07-28T07:58:09;10.75;;;8.52;;
22894;SDS011;11614;52.494;6.976;2023-07-28T08:00:36;14.73;;;9.15;;
22894;SDS011;11614;52.494;6.976;2023-07-28T08:03:03;13.63;;;7.22;;
22894;SDS011;11614;52.494;6.976;2023-07-28T08:05:29;10.45;;;8.32;;
22894;SDS011;11614;52.494;6.976;2023-07-28T08:07:55;14.25;;;10.02;;
22894;SDS011;11614;52.494;6.976;2023-07-28T08:10:21;16.23;;;10.88;;
22894;SDS011;11614;52.494;6.976;2023-07-28T08:12:48;11.02;;;6.50;;
22894;SDS011;11614;52.494;6.976;2023-07-28T08:15:14;15.45;;;8.27;;
22894;SDS011;11614;52.494;6.976;2023-07-28T08:17:40;10.30;;;7.30;;
22894;SDS011;11614;52.494;6.976;2023-07-28T08:20:06;10.80;;;6.97;;
22894;SDS011;11614;52.494;6.976;2023-07-28T08:22:32;10.90;;;6.85;;
22894;SDS011;11614;52.494;6.976;2023-07-28T08:24:58;8.68;;;6.70;;
22894;SDS011;11614;52.494;6.976;2023-07-28T08:27:25;8.95;;;6.05;;
22894;SDS011;11614;52.494;6.976;2023-07-28T08:29:51;9.45;;;5.65;;
22894;SDS011;11614;52.494;6.976;2023-07-28T08:32:17;9.77;;;6.35;;
22894;SDS011;11614;52.494;6.976;2023-07-28T08:34:43;11.82;;;6.35;;
22894;SDS011;11614;52.494;6.976;2023-07-28T08:37:09;10.90;;;6.90;;
22894;SDS011;11614;52.494;6.976;2023-07-28T08:39:35;11.02;;;6.88;;
22894;SDS011;11614;52.494;6.976;2023-07-28T08:42:02;10.88;;;6.43;;
22894;SDS011;11614;52.494;6.976;2023-07-28T08:44:32;9.82;;;6.70;;
22894;SDS011;11614;52.494;6.976;2023-07-28T08:47:01;8.43;;;5.65;;
22894;SDS011;11614;52.494;6.976;2023-07-28T08:49:27;8.98;;;5.78;;
22894;SDS011;11614;52.494;6.976;2023-07-28T08:51:57;8.18;;;5.65;;
22894;SDS011;11614;52.494;6.976;2023-07-28T08:54:23;6.97;;;5.43;;
22894;SDS011;11614;52.494;6.976;2023-07-28T08:56:49;7.30;;;6.10;;
22894;SDS011;11614;52.494;6.976;2023-07-28T08:59:22;5.22;;;3.15;;
22894;SDS011;11614;52.494;6.976;2023-07-28T09:01:51;9.35;;;5.50;;
22894;SDS011;11614;52.494;6.976;2023-07-28T09:04:17;8.27;;;5.55;;
22894;SDS011;11614;52.494;6.976;2023-07-28T09:06:49;7.05;;;5.13;;
22894;SDS011;11614;52.494;6.976;2023-07-28T09:09:16;8.15;;;3.92;;
22894;SDS011;11614;52.494;6.976;2023-07-28T09:11:46;7.15;;;5.00;;
22894;SDS011;11614;52.494;6.976;2023-07-28T09:14:13;4.80;;;3.92;;
22894;SDS011;11614;52.494;6.976;2023-07-28T09:16:39;6.53;;;4.72;;
22894;SDS011;11614;52.494;6.976;2023-07-28T09:19:06;6.00;;;5.07;;
22894;SDS011;11614;52.494;6.976;2023-07-28T09:21:32;4.70;;;4.00;;
22894;SDS011;11614;52.494;6.976;2023-07-28T09:24:09;4.82;;;3.72;;
22894;SDS011;11614;52.494;6.976;2023-07-28T09:29:17;5.30;;;3.65;;
22894;SDS011;11614;52.494;6.976;2023-07-28T09:31:47;6.38;;;5.03;;
22894;SDS011;11614;52.494;6.976;2023-07-28T09:34:23;6.43;;;4.95;;
22894;SDS011;11614;52.494;6.976;2023-07-28T09:36:49;6.65;;;5.43;;
22894;SDS011;11614;52.494;6.976;2023-07-28T09:39:15;8.18;;;5.68;;
22894;SDS011;11614;52.494;6.976;2023-07-28T09:41:41;6.82;;;6.10;;
22894;SDS011;11614;52.494;6.976;2023-07-28T09:44:10;8.43;;;6.65;;
22894;SDS011;11614;52.494;6.976;2023-07-28T09:46:36;6.35;;;4.53;;
22894;SDS011;11614;52.494;6.976;2023-07-28T09:49:11;6.80;;;4.82;;
22894;SDS011;11614;52.494;6.976;2023-07-28T09:51:38;7.55;;;5.75;;
22894;SDS011;11614;52.494;6.976;2023-07-28T09:54:06;7.63;;;6.82;;
22894;SDS011;11614;52.494;6.976;2023-07-28T09:56:37;8.93;;;5.60;;
22894;SDS011;11614;52.494;6.976;2023-07-28T09:59:11;8.45;;;5.72;;
22894;SDS011;11614;52.494;6.976;2023-07-28T10:01:38;9.18;;;6.07;;
22894;SDS011;11614;52.494;6.976;2023-07-28T10:04:05;8.88;;;6.68;;
22894;SDS011;11614;52.494;6.976;2023-07-28T10:06:31;9.93;;;7.47;;
22894;SDS011;11614;52.494;6.976;2023-07-28T10:08:59;11.10;;;7.07;;
22894;SDS011;11614;52.494;6.976;2023-07-28T10:11:25;9.05;;;6.97;;
22894;SDS011;11614;52.494;6.976;2023-07-28T10:13:52;9.27;;;6.47;;
22894;SDS011;11614;52.494;6.976;2023-07-28T10:16:20;8.68;;;6.95;;
22894;SDS011;11614;52.494;6.976;2023-07-28T10:18:55;10.38;;;8.38;;
22894;SDS011;11614;52.494;6.976;2023-07-28T10:21:21;10.48;;;8.40;;
22894;SDS011;11614;52.494;6.976;2023-07-28T10:23:56;10.50;;;8.80;;
22894;SDS011;11614;52.494;6.976;2023-07-28T10:26:31;10.55;;;7.97;;
22894;SDS011;11614;52.494;6.976;2023-07-28T10:29:13;11.05;;;8.75;;
22894;SDS011;11614;52.494;6.976;2023-07-28T10:34:35;12.65;;;8.75;;
22894;SDS011;11614;52.494;6.976;2023-07-28T10:37:01;11.77;;;8.05;;
22894;SDS011;11614;52.494;6.976;2023-07-28T10:39:27;14.18;;;9.45;;
22894;SDS011;11614;52.494;6.976;2023-07-28T10:42:00;14.10;;;9.50;;
22894;SDS011;11614;52.494;6.976;2023-07-28T10:44:27;11.77;;;9.10;;
22894;SDS011;11614;52.494;6.976;2023-07-28T10:46:53;14.50;;;9.18;;
22894;SDS011;11614;52.494;6.976;2023-07-28T10:49:19;10.88;;;8.68;;
22894;SDS011;11614;52.494;6.976;2023-07-28T10:51:45;12.93;;;10.07;;
22894;SDS011;11614;52.494;6.976;2023-07-28T10:54:11;12.93;;;9.27;;
22894;SDS011;11614;52.494;6.976;2023-07-28T10:56:44;13.60;;;9.68;;
22894;SDS011;11614;52.494;6.976;2023-07-28T10:59:10;13.95;;;10.13;;
22894;SDS011;11614;52.494;6.976;2023-07-28T11:01:37;13.20;;;8.40;;
22894;SDS011;11614;52.494;6.976;2023-07-28T11:06:33;13.52;;;9.55;;
22894;SDS011;11614;52.494;6.976;2023-07-28T11:08:59;14.95;;;10.23;;
22894;SDS011;11614;52.494;6.976;2023-07-28T11:11:26;12.45;;;9.32;;
22894;SDS011;11614;52.494;6.976;2023-07-28T11:13:52;12.73;;;9.25;;
22894;SDS011;11614;52.494;6.976;2023-07-28T11:16:19;16.33;;;11.20;;
22894;SDS011;11614;52.494;6.976;2023-07-28T11:18:46;13.50;;;8.15;;
22894;SDS011;11614;52.494;6.976;2023-07-28T11:21:12;12.82;;;9.70;;
22894;SDS011;11614;52.494;6.976;2023-07-28T11:23:38;12.98;;;8.98;;
22894;SDS011;11614;52.494;6.976;2023-07-28T11:26:07;11.05;;;8.00;;
22894;SDS011;11614;52.494;6.976;2023-07-28T11:28:54;9.73;;;6.53;;
22894;SDS011;11614;52.494;6.976;2023-07-28T11:31:23;10.70;;;7.93;;
22894;SDS011;11614;52.494;6.976;2023-07-28T11:33:50;10.30;;;7.57;;
22894;SDS011;11614;52.494;6.976;2023-07-28T11:36:24;6.78;;;4.80;;
22894;SDS011;11614;52.494;6.976;2023-07-28T11:38:54;9.75;;;6.97;;
22894;SDS011;11614;52.494;6.976;2023-07-28T11:41:20;9.38;;;7.43;;
22894;SDS011;11614;52.494;6.976;2023-07-28T11:43:48;9.93;;;7.40;;
22894;SDS011;11614;52.494;6.976;2023-07-28T11:49:10;10.95;;;7.72;;
22894;SDS011;11614;52.494;6.976;2023-07-28T11:51:40;10.15;;;8.23;;
22894;SDS011;11614;52.494;6.976;2023-07-28T11:54:10;10.00;;;8.13;;
22894;SDS011;11614;52.494;6.976;2023-07-28T11:56:36;10.80;;;8.10;;
22894;SDS011;11614;52.494;6.976;2023-07-28T11:59:02;12.60;;;9.98;;
22894;SDS011;11614;52.494;6.976;2023-07-28T12:01:28;12.48;;;10.10;;
22894;SDS011;11614;52.494;6.976;2023-07-28T12:03:54;10.98;;;8.60;;
22894;SDS011;11614;52.494;6.976;2023-07-28T12:06:20;9.90;;;8.48;;
22894;SDS011;11614;52.494;6.976;2023-07-28T12:08:46;14.80;;;10.68;;
22894;SDS011;11614;52.494;6.976;2023-07-28T12:11:15;12.43;;;8.77;;
22894;SDS011;11614;52.494;6.976;2023-07-28T12:13:49;11.63;;;9.23;;
22894;SDS011;11614;52.494;6.976;2023-07-28T12:18:59;13.13;;;8.65;;
22894;SDS011;11614;52.494;6.976;2023-07-28T12:21:25;13.23;;;9.07;;
22894;SDS011;11614;52.494;6.976;2023-07-28T12:23:51;12.25;;;9.95;;
22894;SDS011;11614;52.494;6.976;2023-07-28T12:26:18;13.55;;;8.73;;
22894;SDS011;11614;52.494;6.976;2023-07-28T12:28:44;11.55;;;8.82;;
22894;SDS011;11614;52.494;6.976;2023-07-28T12:31:10;11.02;;;8.35;;
22894;SDS011;11614;52.494;6.976;2023-07-28T12:33:36;11.30;;;8.90;;
22894;SDS011;11614;52.494;6.976;2023-07-28T12:36:02;13.77;;;10.25;;
22894;SDS011;11614;52.494;6.976;2023-07-28T12:38:28;9.25;;;8.02;;
22894;SDS011;11614;52.494;6.976;2023-07-28T12:40:54;12.65;;;9.10;;
22894;SDS011;11614;52.494;6.976;2023-07-28T12:43:20;8.52;;;7.38;;
22894;SDS011;11614;52.494;6.976;2023-07-28T12:45:47;12.25;;;9.18;;
22894;SDS011;11614;52.494;6.976;2023-07-28T12:48:13;11.80;;;9.27;;
22894;SDS011;11614;52.494;6.976;2023-07-28T12:50:38;12.48;;;8.25;;
22894;SDS011;11614;52.494;6.976;2023-07-28T12:53:05;11.30;;;8.77;;
22894;SDS011;11614;52.494;6.976;2023-07-28T12:55:31;11.43;;;8.95;;
22894;SDS011;11614;52.494;6.976;2023-07-28T12:57:59;13.70;;;10.05;;
22894;SDS011;11614;52.494;6.976;2023-07-28T13:00:26;12.30;;;9.80;;
22894;SDS011;11614;52.494;6.976;2023-07-28T13:02:53;13.13;;;9.30;;
22894;SDS011;11614;52.494;6.976;2023-07-28T13:05:19;14.50;;;10.13;;
22894;SDS011;11614;52.494;6.976;2023-07-28T13:07:48;13.57;;;10.93;;
22894;SDS011;11614;52.494;6.976;2023-07-28T13:10:14;14.43;;;10.98;;
22894;SDS011;11614;52.494;6.976;2023-07-28T13:12:40;16.30;;;11.57;;
22894;SDS011;11614;52.494;6.976;2023-07-28T13:15:06;17.20;;;11.60;;
22894;SDS011;11614;52.494;6.976;2023-07-28T13:17:33;18.30;;;11.68;;
22894;SDS011;11614;52.494;6.976;2023-07-28T13:19:59;17.38;;;12.32;;
22894;SDS011;11614;52.494;6.976;2023-07-28T13:22:25;20.00;;;13.30;;
22894;SDS011;11614;52.494;6.976;2023-07-28T13:24:52;17.27;;;13.10;;
22894;SDS011;11614;52.494;6.976;2023-07-28T13:27:19;15.13;;;11.65;;
22894;SDS011;11614;52.494;6.976;2023-07-28T13:29:45;16.98;;;13.25;;
22894;SDS011;11614;52.494;6.976;2023-07-28T13:32:24;17.10;;;12.45;;
22894;SDS011;11614;52.494;6.976;2023-07-28T13:34:50;15.38;;;11.77;;
22894;SDS011;11614;52.494;6.976;2023-07-28T13:37:20;11.40;;;9.02;;
22894;SDS011;11614;52.494;6.976;2023-07-28T13:39:46;14.43;;;9.85;;
22894;SDS011;11614;52.494;6.976;2023-07-28T13:42:12;15.63;;;11.77;;
22894;SDS011;11614;52.494;6.976;2023-07-28T13:44:40;14.63;;;10.57;;
22894;SDS011;11614;52.494;6.976;2023-07-28T13:47:06;14.95;;;9.50;;
22894;SDS011;11614;52.494;6.976;2023-07-28T13:49:32;11.75;;;8.13;;
22894;SDS011;11614;52.494;6.976;2023-07-28T13:52:02;9.73;;;7.38;;
22894;SDS011;11614;52.494;6.976;2023-07-28T13:54:28;7.78;;;6.65;;
22894;SDS011;11614;52.494;6.976;2023-07-28T13:56:54;7.68;;;6.93;;
22894;SDS011;11614;52.494;6.976;2023-07-28T13:59:20;9.13;;;6.47;;
22894;SDS011;11614;52.494;6.976;2023-07-28T14:01:47;10.93;;;5.60;;
22894;SDS011;11614;52.494;6.976;2023-07-28T14:04:13;7.53;;;5.32;;
22894;SDS011;11614;52.494;6.976;2023-07-28T14:06:39;6.68;;;5.40;;
22894;SDS011;11614;52.494;6.976;2023-07-28T14:09:05;7.55;;;5.97;;
22894;SDS011;11614;52.494;6.976;2023-07-28T14:11:31;9.25;;;6.63;;
22894;SDS011;11614;52.494;6.976;2023-07-28T14:13:57;9.60;;;6.85;;
22894;SDS011;11614;52.494;6.976;2023-07-28T14:16:23;6.22;;;5.63;;
22894;SDS011;11614;52.494;6.976;2023-07-28T14:18:49;7.03;;;5.38;;
22894;SDS011;11614;52.494;6.976;2023-07-28T14:21:15;7.45;;;5.05;;
22894;SDS011;11614;52.494;6.976;2023-07-28T14:23:41;7.47;;;6.10;;
22894;SDS011;11614;52.494;6.976;2023-07-28T14:26:07;8.75;;;6.30;;
22894;SDS011;11614;52.494;6.976;2023-07-28T14:28:33;9.45;;;6.07;;
22894;SDS011;11614;52.494;6.976;2023-07-28T14:31:00;6.50;;;5.82;;
22894;SDS011;11614;52.494;6.976;2023-07-28T14:33:26;6.13;;;5.53;;
22894;SDS011;11614;52.494;6.976;2023-07-28T14:35:52;6.70;;;5.75;;
22894;SDS011;11614;52.494;6.976;2023-07-28T14:38:18;7.32;;;6.35;;
22894;SDS011;11614;52.494;6.976;2023-07-28T14:40:45;7.95;;;6.05;;
22894;SDS011;11614;52.494;6.976;2023-07-28T14:43:15;7.45;;;5.10;;
22894;SDS011;11614;52.494;6.976;2023-07-28T14:45:41;5.95;;;5.35;;
22894;SDS011;11614;52.494;6.976;2023-07-28T14:48:08;7.93;;;6.30;;
22894;SDS011;11614;52.494;6.976;2023-07-28T14:50:34;6.80;;;6.10;;